Time;durP1;ratioP1;P1;durP2;ratioP2;P2;SDS_P1;SDS_P2;PMS_P1;PMS_P2;Temp;Humidity;BMP_temperature;BMP_pressure;BME280_temperature;BME280_humidity;BME280_pressure;Samples;Min_cycle;Max_cycle;Signal;HPM_P1;HPM_P2
2021/08/04 00:00:42;;;;;;;8.80;4.08;;;;;;;14.64;87.33;97883.09;1699263;84;21196;-73
2021/08/04 00:03:09;;;;;;;5.60;3.95;;;;;;;14.65;87.98;97884.14;1698925;84;20958;-77
2021/08/04 00:05:35;;;;;;;8.50;4.08;;;;;;;14.65;88.42;97880.05;1699365;82;20929;-73
2021/08/04 00:08:02;;;;;;;9.10;4.70;;;;;;;14.63;87.84;97881.48;1699100;84;20914;-78
2021/08/04 00:10:28;;;;;;;8.95;3.52;;;;;;;14.57;87.19;97881.35;1699329;84;21018;-77
2021/08/04 00:12:54;;;;;;;6.95;4.12;;;;;;;14.48;88.07;97879.11;1699264;83;21914;-77
2021/08/04 00:15:20;;;;;;;7.62;5.28;;;;;;;14.43;89.03;97870.45;1699335;84;20967;-78
2021/08/04 00:17:46;;;;;;;10.30;4.03;;;;;;;14.43;88.35;97873.17;1699060;84;20942;-78
2021/08/04 00:20:13;;;;;;;7.12;4.28;;;;;;;14.42;88.79;97872.94;1699275;82;21049;-77
2021/08/04 00:22:39;;;;;;;9.43;3.08;;;;;;;14.40;88.55;97871.88;1699164;82;21002;-77
2021/08/04 00:25:05;;;;;;;7.40;3.35;;;;;;;14.39;88.53;97883.91;1699378;83;21964;-74
2021/08/04 00:27:31;;;;;;;5.78;3.62;;;;;;;14.37;88.63;97873.06;1699085;84;21434;-74
2021/08/04 00:29:57;;;;;;;5.45;3.90;;;;;;;14.32;88.57;97867.72;1699364;83;20866;-74
2021/08/04 00:32:23;;;;;;;14.70;3.70;;;;;;;14.29;87.50;97867.78;1679358;84;20906;-77
2021/08/04 00:34:49;;;;;;;7.60;4.10;;;;;;;14.16;88.68;97868.62;1699036;83;21053;-78
2021/08/04 00:37:15;;;;;;;8.10;4.80;;;;;;;14.09;88.88;97862.77;1699232;82;21321;-77
2021/08/04 00:39:41;;;;;;;6.08;4.08;;;;;;;14.06;89.07;97860.67;1698944;83;21611;-77
2021/08/04 00:42:08;;;;;;;8.00;4.12;;;;;;;14.09;89.43;97854.05;1699312;82;20934;-73
2021/08/04 00:44:34;;;;;;;7.05;3.40;;;;;;;14.10;88.62;97858.41;1699135;83;20931;-77
2021/08/04 00:47:00;;;;;;;5.47;3.87;;;;;;;14.06;88.36;97851.94;1699000;84;20961;-77
2021/08/04 00:49:26;;;;;;;6.65;4.17;;;;;;;14.04;88.23;97852.81;1706345;82;21171;-77
2021/08/04 00:51:51;;;;;;;5.22;4.03;;;;;;;14.03;89.35;97847.11;1707543;83;20961;-73
2021/08/04 00:54:17;;;;;;;4.22;3.02;;;;;;;14.05;89.11;97846.25;1706914;84;21506;-77
2021/08/04 00:56:43;;;;;;;6.65;3.58;;;;;;;14.07;89.67;97842.65;1707063;82;20839;-73
2021/08/04 00:59:12;;;;;;;6.92;3.22;;;;;;;14.11;88.21;97845.03;1706822;83;21002;-74
2021/08/04 01:01:57;;;;;;;5.97;4.60;;;;;;;14.08;88.71;97839.37;1707176;82;21284;-78
2021/08/04 01:04:30;;;;;;;7.33;4.25;;;;;;;14.08;88.87;97831.20;1706935;84;20919;-73
2021/08/04 01:07:05;;;;;;;8.73;3.65;;;;;;;14.13;89.40;97837.91;1707103;84;20970;-76
2021/08/04 01:09:45;;;;;;;8.65;3.55;;;;;;;14.15;89.04;97834.31;1706884;83;21017;-77
2021/08/04 01:12:14;;;;;;;5.35;3.87;;;;;;;14.15;88.53;97831.59;1707219;83;21207;-77
2021/08/04 01:14:40;;;;;;;6.42;4.70;;;;;;;14.16;88.85;97835.91;1706863;84;21302;-76
2021/08/04 01:17:06;;;;;;;6.60;4.25;;;;;;;14.22;88.14;97834.70;1686707;84;21383;-76
2021/08/04 01:19:59;;;;;;;6.05;4.78;;;;;;;14.29;87.76;97826.91;1706916;84;20954;-72
2021/08/04 01:22:39;;;;;;;10.60;4.70;;;;;;;14.36;87.60;97823.77;1678251;83;20935;-74
2021/08/04 01:25:21;;;;;;;8.63;4.75;;;;;;;14.43;87.64;97828.76;1706598;83;21017;-78
2021/08/04 01:27:56;;;;;;;7.22;3.67;;;;;;;14.41;88.61;97827.71;1706997;84;21023;-73
2021/08/04 01:30:21;;;;;;;5.35;3.87;;;;;;;14.45;87.72;97827.39;1703822;84;21027;-74
2021/08/04 01:32:48;;;;;;;8.40;4.20;;;;;;;14.53;87.41;97829.94;1707069;84;20866;-78
2021/08/04 01:35:14;;;;;;;5.45;3.95;;;;;;;14.55;87.26;97823.61;1707064;83;20985;-74
2021/08/04 01:37:41;;;;;;;7.92;3.67;;;;;;;14.52;87.71;97817.39;1707067;84;20839;-78
2021/08/04 01:40:08;;;;;;;6.92;3.33;;;;;;;14.55;88.18;97821.69;1706724;83;21291;-78
2021/08/04 01:42:34;;;;;;;4.75;3.25;;;;;;;14.57;87.82;97828.19;1706857;84;20962;-74
2021/08/04 01:45:01;;;;;;;5.85;3.55;;;;;;;14.48;87.43;97823.23;1706800;83;21029;-74
2021/08/04 01:47:30;;;;;;;5.62;3.02;;;;;;;14.42;87.40;97831.23;1706835;84;20922;-77
2021/08/04 01:49:56;;;;;;;5.53;3.90;;;;;;;14.42;87.90;97854.41;1707957;82;20985;-78
2021/08/04 01:52:23;;;;;;;6.62;3.80;;;;;;;14.37;88.66;97865.70;1707106;82;21326;-78
2021/08/04 01:54:49;;;;;;;8.30;4.33;;;;;;;14.41;87.84;97856.33;1706693;83;21010;-74
2021/08/04 01:57:15;;;;;;;7.92;3.75;;;;;;;14.44;87.29;97850.28;1707107;84;20961;-74
2021/08/04 01:59:40;;;;;;;8.05;4.22;;;;;;;14.42;87.56;97853.85;1706773;84;20886;-78
2021/08/04 02:02:19;;;;;;;5.80;3.85;;;;;;;14.45;87.21;97853.81;1707112;84;20886;-74
2021/08/04 02:04:45;;;;;;;7.35;4.30;;;;;;;14.45;88.92;97861.99;1706903;84;21933;-76
2021/08/04 02:07:19;;;;;;;6.35;3.70;;;;;;;14.46;88.29;97860.91;1706910;83;20873;-75
2021/08/04 02:09:52;;;;;;;8.03;3.58;;;;;;;14.54;87.64;97864.26;1706663;83;20931;-77
2021/08/04 02:12:18;;;;;;;7.70;3.98;;;;;;;14.55;87.63;97865.30;1707093;83;20970;-78
2021/08/04 02:15:00;;;;;;;4.65;3.50;;;;;;;14.56;87.90;97861.46;1706952;84;20997;-73
2021/08/04 02:18:00;;;;;;;4.80;3.67;;;;;;;14.63;87.51;97870.02;1707073;83;21769;-78
2021/08/04 02:20:34;;;;;;;7.30;3.87;;;;;;;14.68;87.48;97873.97;1706915;83;20960;-76
2021/08/04 02:23:04;;;;;;;5.08;3.80;;;;;;;14.64;88.27;97873.00;1706355;83;21029;-77
2021/08/04 02:26:04;;;;;;;7.67;4.80;;;;;;;14.63;88.60;97869.22;1707067;83;20962;-78
2021/08/04 02:28:36;;;;;;;14.68;8.38;;;;;;;14.67;88.06;97870.20;1688446;83;20931;-77
2021/08/04 02:31:02;;;;;;;7.37;5.70;;;;;;;14.74;87.31;97867.84;1706844;84;21149;-74
2021/08/04 02:33:29;;;;;;;9.20;4.83;;;;;;;14.83;86.90;97867.91;1706585;84;21089;-77
2021/08/04 02:35:55;;;;;;;6.92;3.90;;;;;;;14.85;86.61;97871.12;1707130;83;21003;-73
2021/08/04 02:38:21;;;;;;;8.25;4.90;;;;;;;14.87;86.34;97868.35;1686650;84;20986;-73
2021/08/04 02:40:47;;;;;;;13.78;7.47;;;;;;;14.84;86.40;97865.42;1706910;83;20831;-74
2021/08/04 02:43:13;;;;;;;8.33;4.95;;;;;;;14.84;86.63;97864.05;1686349;84;21152;-74
2021/08/04 02:45:39;;;;;;;7.58;4.30;;;;;;;14.90;86.40;97875.91;1710561;83;20917;-74
2021/08/04 02:48:05;;;;;;;7.20;5.67;;;;;;;14.93;86.08;97873.91;1706730;83;20914;-77
2021/08/04 02:50:34;;;;;;;10.78;7.15;;;;;;;14.94;85.89;97877.44;1710127;83;20866;-73
2021/08/04 02:53:00;;;;;;;14.60;8.13;;;;;;;14.89;86.76;97874.85;1689306;83;20998;-77
2021/08/04 02:55:26;;;;;;;10.65;6.20;;;;;;;14.86;87.16;97872.73;1710461;83;21323;-77
2021/08/04 02:57:52;;;;;;;9.40;4.37;;;;;;;14.93;86.85;97878.00;1706884;83;20996;-78
2021/08/04 03:00:18;;;;;;;16.00;9.05;;;;;;;14.91;86.67;97877.51;1706608;84;21077;-78
2021/08/04 03:02:43;;;;;;;12.85;8.13;;;;;;;14.91;87.93;97873.98;1706961;82;20830;-73
2021/08/04 03:05:10;;;;;;;13.60;7.62;;;;;;;14.92;87.69;97878.31;1706885;84;20961;-73
2021/08/04 03:07:36;;;;;;;13.85;8.20;;;;;;;14.87;87.96;97873.00;1707353;83;21340;-75
2021/08/04 03:10:03;;;;;;;11.08;6.28;;;;;;;14.83;87.42;97868.70;1706727;82;20866;-73
2021/08/04 03:12:29;;;;;;;12.85;6.58;;;;;;;14.86;87.81;97873.53;1707036;83;21048;-77
2021/08/04 03:14:55;;;;;;;17.75;9.10;;;;;;;14.84;88.41;97872.24;1706875;83;20897;-77
2021/08/04 03:17:21;;;;;;;8.65;6.65;;;;;;;14.79;88.33;97867.73;1706998;84;20862;-78
2021/08/04 03:19:47;;;;;;;8.25;5.10;;;;;;;14.79;88.64;97871.02;1706909;84;21328;-78
2021/08/04 03:22:13;;;;;;;7.67;4.20;;;;;;;14.81;88.37;97868.22;1706873;82;20858;-73
2021/08/04 03:24:39;;;;;;;6.37;3.35;;;;;;;14.77;90.75;97866.41;1706822;84;20906;-73
2021/08/04 03:27:04;;;;;;;4.58;3.33;;;;;;;14.87;89.07;97871.64;1707015;82;20926;-73
2021/08/04 03:29:31;;;;;;;7.47;3.87;;;;;;;14.92;88.69;97875.03;1686270;84;21018;-73
2021/08/04 03:31:56;;;;;;;6.10;3.52;;;;;;;14.91;88.44;97873.98;1706900;83;21840;-79
2021/08/04 03:34:22;;;;;;;8.45;4.47;;;;;;;14.89;88.49;97866.11;1706889;84;20960;-73
2021/08/04 03:36:48;;;;;;;7.10;4.10;;;;;;;14.83;89.29;97864.62;1707098;83;20890;-79
2021/08/04 03:39:14;;;;;;;16.85;5.42;;;;;;;14.78;88.42;97857.91;1706697;82;20858;-79
2021/08/04 03:41:40;;;;;;;5.47;3.95;;;;;;;14.62;88.86;97859.43;1706979;82;20882;-79
2021/08/04 03:44:06;;;;;;;5.85;3.40;;;;;;;14.59;89.01;97852.66;1706793;84;21311;-79
2021/08/04 03:46:32;;;;;;;7.92;4.05;;;;;;;14.57;89.08;97840.45;1706933;84;20921;-79
2021/08/04 03:48:58;;;;;;;9.00;3.58;;;;;;;14.49;88.78;97839.27;1706717;83;21490;-79
2021/08/04 03:51:24;;;;;;;7.22;4.92;;;;;;;14.54;89.09;97841.89;1711665;83;20843;-73
2021/08/04 03:53:50;;;;;;;7.58;4.20;;;;;;;14.56;89.06;97843.73;1707063;83;20902;-79
2021/08/04 03:56:16;;;;;;;4.40;3.52;;;;;;;14.56;89.40;97847.83;1707014;84;21992;-73
2021/08/04 03:58:42;;;;;;;6.50;3.90;;;;;;;14.60;89.41;97842.55;1706702;83;20934;-74
2021/08/04 04:01:08;;;;;;;6.17;4.05;;;;;;;14.57;90.71;97837.73;1706871;82;21126;-73
2021/08/04 04:03:34;;;;;;;5.33;4.05;;;;;;;14.61;92.68;97832.72;1706954;82;20846;-79
2021/08/04 04:06:00;;;;;;;5.65;3.80;;;;;;;14.65;92.48;97830.97;1706733;84;20871;-74
2021/08/04 04:08:25;;;;;;;6.97;3.45;;;;;;;14.72;92.15;97833.27;1706904;84;21327;-74
2021/08/04 04:10:51;;;;;;;5.50;3.85;;;;;;;14.72;91.71;97825.09;1706689;84;20976;-79
2021/08/04 04:13:17;;;;;;;5.65;3.58;;;;;;;14.80;90.77;97834.45;1706893;84;20866;-79
2021/08/04 04:15:43;;;;;;;5.87;3.87;;;;;;;14.88;90.23;97839.95;1706714;84;20811;-79
2021/08/04 04:18:09;;;;;;;5.33;4.08;;;;;;;14.97;89.80;97843.29;1706956;83;21521;-73
2021/08/04 04:20:35;;;;;;;7.87;5.25;;;;;;;14.89;89.54;97841.56;1706841;82;21015;-73
2021/08/04 04:23:01;;;;;;;6.78;4.45;;;;;;;14.92;89.82;97834.11;1706916;83;20886;-74
2021/08/04 04:25:28;;;;;;;7.80;4.08;;;;;;;14.98;90.17;97828.53;1706936;83;21363;-79
2021/08/04 04:27:54;;;;;;;6.40;4.00;;;;;;;15.03;89.69;97835.20;1707079;83;20947;-74
2021/08/04 04:30:20;;;;;;;6.85;3.80;;;;;;;15.09;89.57;97838.85;1706839;84;21556;-73
2021/08/04 04:32:45;;;;;;;7.22;4.30;;;;;;;15.14;89.40;97845.55;1706986;83;21167;-79
2021/08/04 04:35:12;;;;;;;6.70;3.80;;;;;;;15.14;90.06;97831.91;1706995;84;20992;-79
2021/08/04 04:37:39;;;;;;;6.87;3.90;;;;;;;15.18;90.11;97836.16;1707172;83;21244;-79
2021/08/04 04:40:07;;;;;;;6.00;3.72;;;;;;;15.20;90.13;97840.18;1706922;84;21351;-79
2021/08/04 04:42:33;;;;;;;5.25;3.47;;;;;;;15.27;90.30;97852.58;1707084;82;21412;-79
2021/08/04 04:44:59;;;;;;;16.35;5.75;;;;;;;15.33;89.60;97857.59;1706899;84;21031;-73
2021/08/04 04:47:25;;;;;;;14.07;6.00;;;;;;;15.45;89.34;97857.00;1707142;84;20921;-73
2021/08/04 04:49:50;;;;;;;14.65;6.78;;;;;;;15.56;89.14;97856.17;1707914;82;20961;-79
2021/08/04 04:52:16;;;;;;;11.90;6.55;;;;;;;15.60;89.75;97856.58;1712130;83;20905;-73
2021/08/04 04:54:42;;;;;;;7.50;4.55;;;;;;;15.65;89.62;97865.23;1712222;83;21020;-79
2021/08/04 04:57:08;;;;;;;11.95;5.20;;;;;;;15.70;89.37;97857.69;1707643;82;22032;-75
2021/08/04 04:59:34;;;;;;;7.47;5.15;;;;;;;15.86;89.09;97858.61;1706992;83;20830;-80
2021/08/04 05:02:00;;;;;;;7.45;5.40;;;;;;;15.95;88.94;97865.70;1707063;83;20945;-73
2021/08/04 05:04:26;;;;;;;5.92;4.78;;;;;;;16.07;88.65;97878.77;1707013;82;21452;-79
2021/08/04 05:06:52;;;;;;;10.05;5.90;;;;;;;16.14;88.68;97881.01;1707079;83;20862;-79
2021/08/04 05:09:18;;;;;;;11.45;7.25;;;;;;;16.04;88.70;97871.19;1707146;83;21233;-73
2021/08/04 05:11:43;;;;;;;19.23;9.45;;;;;;;16.11;88.25;97881.66;1707093;83;20858;-79
2021/08/04 05:14:09;;;;;;;20.55;9.78;;;;;;;16.12;88.24;97884.06;1706773;83;20858;-79
2021/08/04 05:16:35;;;;;;;16.32;10.03;;;;;;;16.19;88.00;97880.30;1707139;83;21428;-79
2021/08/04 05:19:01;;;;;;;18.12;11.88;;;;;;;16.28;87.83;97874.28;1706888;82;20879;-79
2021/08/04 05:21:27;;;;;;;13.83;9.08;;;;;;;16.37;87.60;97871.55;1706898;84;20897;-73
2021/08/04 05:23:53;;;;;;;16.60;9.13;;;;;;;16.38;87.76;97863.59;1706582;84;20878;-79
2021/08/04 05:26:19;;;;;;;13.15;7.35;;;;;;;16.38;87.17;97860.86;1706874;82;21012;-73
2021/08/04 05:28:45;;;;;;;9.10;5.65;;;;;;;16.34;87.28;97865.38;1706984;83;20843;-73
2021/08/04 05:31:11;;;;;;;5.65;4.10;;;;;;;16.29;87.92;97859.48;1706999;84;20941;-74
2021/08/04 05:33:37;;;;;;;6.47;4.15;;;;;;;16.32;87.63;97867.06;1706795;83;20974;-79
2021/08/04 05:36:03;;;;;;;6.45;3.70;;;;;;;16.32;87.28;97865.70;1706702;84;20906;-79
2021/08/04 05:38:29;;;;;;;4.95;3.58;;;;;;;16.38;87.28;97868.26;1706878;83;21021;-79
2021/08/04 05:40:55;;;;;;;7.75;4.62;;;;;;;16.39;86.85;97868.50;1706875;84;20867;-73
2021/08/04 05:43:21;;;;;;;7.33;4.05;;;;;;;16.48;86.59;97868.73;1706873;83;21544;-73
2021/08/04 05:45:47;;;;;;;9.95;5.30;;;;;;;16.57;85.88;97868.73;1706855;83;21316;-73
2021/08/04 05:48:13;;;;;;;12.07;4.67;;;;;;;16.56;86.12;97872.03;1706931;83;20913;-79
2021/08/04 05:50:39;;;;;;;23.05;4.87;;;;;;;16.62;86.06;97872.69;1705830;83;20918;-73
2021/08/04 05:53:05;;;;;;;6.42;4.40;;;;;;;16.76;85.86;97870.62;1700438;82;20918;-79
2021/08/04 05:55:33;;;;;;;10.08;4.92;;;;;;;16.78;85.85;97873.03;1699180;83;20958;-79
2021/08/04 05:57:58;;;;;;;7.37;4.78;;;;;;;16.78;85.52;97870.30;1699304;83;21304;-78
2021/08/04 06:00:25;;;;;;;9.03;4.60;;;;;;;16.67;85.70;97882.68;1699168;83;20977;-79
2021/08/04 06:02:50;;;;;;;6.72;4.67;;;;;;;16.68;85.92;97878.81;1699030;84;20831;-73
2021/08/04 06:05:16;;;;;;;10.25;4.25;;;;;;;16.72;85.98;97883.33;1699104;83;20847;-79
2021/08/04 06:07:42;;;;;;;10.00;4.75;;;;;;;16.75;85.96;97876.40;1699296;84;20930;-73
2021/08/04 06:10:10;;;;;;;5.80;4.87;;;;;;;16.80;85.86;97881.16;1699235;84;21321;-73
2021/08/04 06:12:36;;;;;;;5.53;4.70;;;;;;;16.88;85.87;97886.38;1699051;82;20918;-73
2021/08/04 06:15:02;;;;;;;10.98;5.08;;;;;;;16.94;85.63;97889.77;1699030;83;20859;-73
2021/08/04 06:17:28;;;;;;;6.85;4.70;;;;;;;17.02;85.65;97883.47;1699211;84;20819;-79
2021/08/04 06:19:54;;;;;;;6.33;4.08;;;;;;;17.17;85.72;97876.89;1699098;83;20914;-73
2021/08/04 06:22:19;;;;;;;6.28;4.60;;;;;;;17.35;85.52;97880.98;1699259;83;21309;-79
2021/08/04 06:24:45;;;;;;;7.03;4.70;;;;;;;17.47;85.05;97884.63;1698889;84;21572;-73
2021/08/04 06:27:11;;;;;;;7.25;4.90;;;;;;;17.61;84.39;97894.02;1699215;83;20969;-79
2021/08/04 06:29:37;;;;;;;9.48;5.60;;;;;;;17.76;84.22;97880.34;1699240;83;20934;-74
2021/08/04 06:32:04;;;;;;;7.80;5.55;;;;;;;17.77;83.10;97892.91;1699290;84;20966;-79
2021/08/04 06:34:30;;;;;;;8.60;5.70;;;;;;;17.86;82.69;97885.48;1699128;83;20975;-74
2021/08/04 06:36:56;;;;;;;5.22;4.12;;;;;;;18.03;82.57;97894.14;1699180;83;20930;-79
2021/08/04 06:39:22;;;;;;;5.78;4.37;;;;;;;18.22;82.35;97893.16;1699278;84;21612;-74
2021/08/04 06:41:48;;;;;;;11.95;4.47;;;;;;;18.50;82.36;97895.39;1698939;84;21047;-79
2021/08/04 06:44:14;;;;;;;6.92;3.75;;;;;;;18.65;81.67;97893.45;1698870;83;20910;-74
2021/08/04 06:46:40;;;;;;;4.80;3.72;;;;;;;18.79;82.39;97883.55;1698910;83;22021;-79
2021/08/04 06:49:06;;;;;;;9.70;4.22;;;;;;;19.05;81.37;97879.98;1698881;83;20884;-73
2021/08/04 06:51:32;;;;;;;4.62;3.85;;;;;;;19.23;80.96;97878.44;1709686;82;21466;-79
2021/08/04 06:53:58;;;;;;;6.78;4.10;;;;;;;19.37;79.45;97877.56;1710958;82;21033;-74
2021/08/04 06:56:24;;;;;;;10.20;4.45;;;;;;;19.52;79.49;97873.36;1707080;84;20933;-74
2021/08/04 06:58:50;;;;;;;6.70;3.52;;;;;;;19.57;76.53;97874.52;1706829;83;21142;-79
2021/08/04 07:01:16;;;;;;;6.90;4.05;;;;;;;19.90;78.07;97876.60;1706928;83;20870;-73
2021/08/04 07:03:42;;;;;;;4.55;3.10;;;;;;;19.97;77.26;97868.58;1706739;84;20996;-79
2021/08/04 07:06:10;;;;;;;6.40;3.42;;;;;;;19.92;77.55;97877.66;1706944;82;20862;-74
2021/08/04 07:08:37;;;;;;;8.03;3.95;;;;;;;20.05;77.34;97875.69;1707477;83;20958;-74
2021/08/04 07:11:03;;;;;;;7.83;3.80;;;;;;;20.24;76.65;97883.56;1706777;83;21216;-74
2021/08/04 07:13:29;;;;;;;6.90;3.25;;;;;;;20.31;75.50;97878.86;1706834;84;20997;-80
2021/08/04 07:15:55;;;;;;;8.40;3.90;;;;;;;20.43;75.85;97878.05;1706693;83;20961;-75
2021/08/04 07:18:21;;;;;;;5.33;3.20;;;;;;;20.56;75.29;97868.63;1706887;84;20914;-73
2021/08/04 07:20:47;;;;;;;4.30;3.22;;;;;;;20.77;72.85;97875.34;1706943;83;20874;-79
2021/08/04 07:23:12;;;;;;;11.70;5.53;;;;;;;20.61;73.12;97873.91;1706915;83;22042;-79
2021/08/04 07:25:38;;;;;;;4.47;3.25;;;;;;;20.66;72.86;97875.59;1706682;84;20954;-74
2021/08/04 07:28:05;;;;;;;9.95;3.30;;;;;;;20.71;74.08;97873.98;1706930;83;20909;-79
2021/08/04 07:30:31;;;;;;;4.62;3.08;;;;;;;20.95;74.19;97874.47;1706870;83;21041;-80
2021/08/04 07:32:56;;;;;;;4.05;2.85;;;;;;;21.00;71.65;97875.00;1706962;83;20961;-74
2021/08/04 07:35:23;;;;;;;5.95;3.62;;;;;;;21.23;71.25;97873.86;1706884;84;22017;-74
2021/08/04 07:37:49;;;;;;;5.28;3.42;;;;;;;21.37;70.59;97864.63;1706870;83;20983;-74
2021/08/04 07:40:16;;;;;;;6.90;3.47;;;;;;;21.52;70.62;97867.73;1686719;84;21076;-79
2021/08/04 07:42:42;;;;;;;6.00;3.72;;;;;;;21.90;70.02;97862.39;1706838;83;21158;-79
2021/08/04 07:45:08;;;;;;;8.60;3.90;;;;;;;22.42;67.99;97855.72;1706855;83;20902;-74
2021/08/04 07:47:34;;;;;;;5.83;3.65;;;;;;;22.64;67.48;97854.78;1706932;82;21286;-79
2021/08/04 07:50:00;;;;;;;4.97;3.67;;;;;;;22.74;68.26;97855.02;1707060;83;20992;-80
2021/08/04 07:52:26;;;;;;;3.92;2.80;;;;;;;23.23;68.11;97857.16;1705172;82;20915;-74
2021/08/04 07:54:52;;;;;;;4.95;2.60;;;;;;;23.79;63.40;97861.34;1699168;84;20945;-80
2021/08/04 07:57:18;;;;;;;4.60;2.22;;;;;;;24.74;61.46;97861.95;1699126;84;20997;-79
2021/08/04 07:59:44;;;;;;;5.22;2.80;;;;;;;24.92;58.34;97861.36;1699334;82;21152;-74
2021/08/04 08:02:10;;;;;;;4.40;3.00;;;;;;;24.24;59.57;97859.64;1699082;84;20942;-74
2021/08/04 08:04:36;;;;;;;3.30;2.60;;;;;;;24.13;60.30;97854.75;1699202;84;20890;-74
2021/08/04 08:07:02;;;;;;;4.47;2.75;;;;;;;24.78;57.66;97860.59;1698981;84;20879;-80
2021/08/04 08:09:28;;;;;;;5.58;2.67;;;;;;;24.96;59.42;97846.39;1699383;83;21037;-74
2021/08/04 08:11:58;;;;;;;5.28;2.40;;;;;;;25.18;59.64;97843.86;1699019;84;21826;-80
2021/08/04 08:14:26;;;;;;;5.37;2.45;;;;;;;25.57;59.42;97853.37;1699182;84;20958;-80
2021/08/04 08:16:52;;;;;;;3.50;2.50;;;;;;;26.22;57.37;97856.66;1699145;83;21018;-75
2021/08/04 08:19:18;;;;;;;3.40;2.33;;;;;;;26.03;55.96;97846.63;1699370;83;20886;-75
2021/08/04 08:21:44;;;;;;;3.90;2.20;;;;;;;25.68;55.81;97843.75;1699192;84;21572;-80
2021/08/04 08:24:10;;;;;;;4.30;2.62;;;;;;;25.68;55.81;97843.75;1699168;83;21276;-80
2021/08/04 08:26:37;;;;;;;3.42;2.17;;;;;;;25.62;54.23;97853.59;1698915;84;20863;-75
2021/08/04 08:29:04;;;;;;;2.50;1.70;;;;;;;25.57;52.79;97849.80;1699053;84;21451;-75
2021/08/04 08:31:29;;;;;;;2.27;1.72;;;;;;;26.00;52.47;97842.64;1699160;83;20986;-75
2021/08/04 08:33:59;;;;;;;5.92;2.30;;;;;;;25.77;53.19;97837.90;1699032;84;21045;-80
2021/08/04 08:36:23;;;;;;;3.25;1.35;;;;;;;26.00;53.11;97841.26;1699019;84;21325;-75
2021/08/04 08:38:49;;;;;;;4.75;2.15;;;;;;;25.55;50.74;97836.87;1699138;84;21433;-75
2021/08/04 08:41:16;;;;;;;4.42;2.30;;;;;;;25.14;51.65;97832.75;1699285;84;20874;-75
2021/08/04 08:43:42;;;;;;;3.95;1.85;;;;;;;24.65;52.01;97840.66;1699047;84;21095;-75
2021/08/04 08:46:08;;;;;;;3.47;2.27;;;;;;;24.38;52.72;97838.53;1699108;84;21053;-76
2021/08/04 08:48:34;;;;;;;3.08;2.50;;;;;;;23.72;55.41;97841.85;1699099;84;20914;-80
2021/08/04 08:51:00;;;;;;;2.55;2.02;;;;;;;23.68;56.00;97839.62;1699236;83;20883;-75
2021/08/04 08:53:26;;;;;;;3.72;1.85;;;;;;;23.72;55.79;97838.50;1699102;84;21453;-80
2021/08/04 08:55:52;;;;;;;4.55;1.77;;;;;;;23.61;55.72;97842.48;1699097;84;20883;-80
2021/08/04 08:58:18;;;;;;;3.72;1.98;;;;;;;24.12;55.50;97840.71;1699310;84;21386;-76
2021/08/04 09:00:44;;;;;;;2.92;2.00;;;;;;;24.07;55.64;97839.63;1699311;84;22031;-80
2021/08/04 09:03:10;;;;;;;2.27;1.60;;;;;;;24.50;54.70;97841.64;1699265;83;20930;-80
2021/08/04 09:05:54;;;;;;;3.17;2.15;;;;;;;24.89;52.55;97840.75;1699201;84;20922;-80
2021/08/04 09:08:29;;;;;;;3.98;1.70;;;;;;;25.48;51.32;97834.86;1699168;83;21034;-75
2021/08/04 09:10:56;;;;;;;2.58;2.12;;;;;;;25.63;51.31;97832.98;1700354;83;21005;-79
2021/08/04 09:13:33;;;;;;;2.00;1.60;;;;;;;25.74;49.70;97833.92;1699189;83;21129;-79
2021/08/04 09:16:09;;;;;;;3.15;2.20;;;;;;;25.36;51.78;97832.95;1699062;83;20970;-75
2021/08/04 09:18:51;;;;;;;2.60;1.87;;;;;;;24.52;52.66;97839.88;1699040;84;21018;-74
2021/08/04 09:21:17;;;;;;;2.77;2.17;;;;;;;24.64;53.57;97835.50;1657030;84;20938;-74
2021/08/04 09:23:51;;;;;;;4.90;2.02;;;;;;;24.64;53.85;97834.12;1699001;83;20955;-79
2021/08/04 09:26:23;;;;;;;2.47;2.10;;;;;;;24.70;53.65;97840.92;1699078;84;21927;-74
2021/08/04 09:29:02;;;;;;;3.33;2.40;;;;;;;26.09;51.73;97838.14;1698928;83;21009;-75
2021/08/04 09:31:48;;;;;;;3.95;2.47;;;;;;;25.69;49.79;97838.40;1699192;84;21595;-79
2021/08/04 09:34:38;;;;;;;7.45;2.87;;;;;;;25.82;50.46;97841.12;1698871;84;21034;-80
2021/08/04 09:37:15;;;;;;;4.80;1.80;;;;;;;25.83;50.64;97836.37;1699054;83;20938;-76
2021/08/04 09:39:54;;;;;;;1.85;1.32;;;;;;;25.49;49.86;97835.06;1699038;84;21014;-74
2021/08/04 09:42:20;;;;;;;3.15;1.77;;;;;;;24.89;48.98;97828.28;1699079;83;20927;-79
2021/08/04 09:44:57;;;;;;;2.90;1.80;;;;;;;25.03;51.09;97829.84;1699278;84;21009;-79
2021/08/04 09:47:24;;;;;;;2.30;1.70;;;;;;;24.72;49.74;97839.37;1698862;84;20955;-75
2021/08/04 09:50:04;;;;;;;3.52;1.60;;;;;;;24.42;51.47;97838.56;1699281;83;21033;-74
2021/08/04 09:52:30;;;;;;;3.35;1.90;;;;;;;24.50;51.60;97836.11;1699269;83;21936;-78
2021/08/04 09:55:15;;;;;;;3.27;1.45;;;;;;;24.31;51.61;97832.86;1699107;83;21018;-75
2021/08/04 09:57:43;;;;;;;2.83;1.65;;;;;;;24.17;51.80;97842.34;1698995;83;20961;-79
2021/08/04 10:00:11;;;;;;;2.15;1.57;;;;;;;23.89;52.29;97847.66;1699308;83;21352;-75
2021/08/04 10:02:37;;;;;;;2.37;1.60;;;;;;;24.00;52.38;97833.19;1698872;83;20927;-76
2021/08/04 10:05:25;;;;;;;2.87;1.65;;;;;;;24.20;52.26;97828.57;1698984;84;21305;-76
2021/08/04 10:08:11;;;;;;;4.40;1.90;;;;;;;24.26;52.51;97833.77;1679562;84;20998;-80
2021/08/04 10:10:45;;;;;;;2.08;1.60;;;;;;;24.14;52.02;97828.67;1699243;83;20919;-75
2021/08/04 10:13:14;;;;;;;2.87;1.50;;;;;;;23.98;52.21;97832.77;1697167;83;20975;-75
2021/08/04 10:15:41;;;;;;;;;;;;;;;24.05;51.89;97833.68;1701664;83;21030;-75
2021/08/04 10:18:14;;;;;;;2.57;1.60;;;;;;;24.05;52.01;97830.11;1699182;84;21159;-75
2021/08/04 10:20:40;;;;;;;4.47;1.70;;;;;;;24.53;51.72;97829.04;1699965;83;20966;-75
2021/08/04 10:23:08;;;;;;;5.55;2.70;;;;;;;24.67;51.01;97833.35;1699171;84;20930;-79
2021/08/04 10:25:34;;;;;;;2.20;1.65;;;;;;;24.74;48.76;97830.67;1697610;83;21400;-75
2021/08/04 10:28:06;;;;;;;4.80;1.70;;;;;;;24.60;49.79;97833.26;1698911;84;21076;-75
2021/08/04 10:30:32;;;;;;;2.27;1.60;;;;;;;24.60;49.79;97833.26;1698392;84;21309;-79
2021/08/04 10:32:58;;;;;;;2.27;1.47;;;;;;;25.97;46.65;97831.50;1699086;83;21439;-75
2021/08/04 10:35:25;;;;;;;2.27;1.30;;;;;;;24.96;47.89;97832.53;1699522;83;20867;-75
2021/08/04 10:37:50;;;;;;;1.70;1.30;;;;;;;24.65;49.74;97841.25;1698905;84;20955;-75
2021/08/04 10:40:17;;;;;;;3.55;1.50;;;;;;;24.48;50.25;97846.18;1699475;84;20848;-75
2021/08/04 10:42:46;;;;;;;2.87;1.60;;;;;;;24.12;50.73;97837.94;1699180;83;21012;-80
2021/08/04 10:45:27;;;;;;;3.40;1.60;;;;;;;23.77;51.61;97840.97;1699353;83;20959;-79
2021/08/04 10:48:18;;;;;;;2.70;1.70;;;;;;;23.62;52.93;97834.98;1698923;83;20962;-79
2021/08/04 10:51:12;;;;;;;4.20;1.50;;;;;;;23.55;52.46;97837.59;1693589;84;21356;-75
2021/08/04 10:54:12;;;;;;;2.85;1.67;;;;;;;23.25;53.26;97839.66;1699206;83;21017;-74
2021/08/04 10:56:38;;;;;;;2.83;1.42;;;;;;;23.64;52.06;97840.93;1698217;84;21274;-75
2021/08/04 10:59:16;;;;;;;1.82;1.35;;;;;;;23.74;52.65;97838.92;1698955;83;20921;-79
2021/08/04 11:01:50;;;;;;;3.27;1.70;;;;;;;23.89;52.33;97837.98;1699429;83;21431;-80
2021/08/04 11:04:32;;;;;;;2.35;1.20;;;;;;;23.99;52.35;97832.39;1698861;83;21026;-75
2021/08/04 11:07:17;;;;;;;2.60;1.32;;;;;;;23.73;52.29;97834.56;1699635;83;20974;-78
2021/08/04 11:09:53;;;;;;;2.35;1.30;;;;;;;23.66;52.81;97829.49;1699442;82;21048;-79
2021/08/04 11:12:40;;;;;;;2.22;1.27;;;;;;;23.32;52.74;97836.20;1698293;84;20904;-80
2021/08/04 11:15:29;;;;;;;2.42;1.70;;;;;;;23.07;53.28;97834.36;1699761;84;20967;-74
2021/08/04 11:18:07;;;;;;;2.80;1.75;;;;;;;23.07;53.52;97833.80;1696149;84;21057;-74
2021/08/04 11:20:30;;;;;;;1.98;1.50;;;;;;;22.66;54.44;97838.09;1697867;84;21041;-79
2021/08/04 11:22:56;;;;;;;2.83;1.30;;;;;;;22.71;54.49;97827.31;1699048;83;22011;-74
2021/08/04 11:25:38;;;;;;;2.83;1.62;;;;;;;22.64;54.54;97833.48;1697558;83;21018;-79
2021/08/04 11:28:08;;;;;;;2.50;1.60;;;;;;;22.48;55.17;97835.55;1698998;83;20927;-74
2021/08/04 11:30:47;;;;;;;3.67;1.92;;;;;;;22.53;54.74;97838.00;1699262;82;20922;-79
2021/08/04 11:33:25;;;;;;;4.72;1.52;;;;;;;22.72;54.84;97835.23;1699466;83;21005;-79
2021/08/04 11:36:15;;;;;;;3.12;1.90;;;;;;;22.97;54.08;97839.10;1699656;83;21656;-78
2021/08/04 11:38:54;;;;;;;6.70;1.85;;;;;;;22.99;53.47;97838.98;1699040;83;20939;-79